Time;durP1;ratioP1;P1;durP2;ratioP2;P2;SDS_P1;SDS_P2;PMS_P1;PMS_P2;Temp;Humidity;BMP_temperature;BMP_pressure;BME280_temperature;BME280_humidity;BME280_pressure;Samples;Min_cycle;Max_cycle;Signal;HPM_P1;HPM_P2
2023/10/11 00:02:09;;;;;;;10.93;2.80;;;;;;;;;;5006380;28;20056;-62
2023/10/11 00:04:37;;;;;;;11.20;2.97;;;;;;;;;;5023032;28;20041;-62
2023/10/11 00:07:04;;;;;;;11.90;3.10;;;;;;;;;;5012105;28;20131;-62
2023/10/11 00:09:35;;;;;;;9.43;2.78;;;;;;;;;;5017413;28;20069;-62
2023/10/11 00:12:04;;;;;;;8.27;2.65;;;;;;;;;;5018893;28;20058;-61
2023/10/11 00:14:31;;;;;;;10.85;2.63;;;;;;;;;;5018763;28;20217;-62
2023/10/11 00:16:59;;;;;;;10.93;2.80;;;;;;;;;;5005355;28;20081;-62
2023/10/11 00:19:29;;;;;;;7.25;2.53;;;;;;;;;;5015296;28;20053;-61
2023/10/11 00:21:56;;;;;;;9.60;2.78;;;;;;;;;;5018237;28;20137;-62
2023/10/11 00:24:24;;;;;;;10.15;2.95;;;;;;;;;;5017990;28;20064;-62
2023/10/11 00:26:51;;;;;;;7.10;3.17;;;;;;;;;;5013149;28;20049;-62
2023/10/11 00:29:18;;;;;;;9.03;3.30;;;;;;;;;;5010896;28;20054;-62
2023/10/11 00:31:45;;;;;;;13.65;3.10;;;;;;;;;;5018848;28;20077;-61
2023/10/11 00:34:13;;;;;;;8.32;2.85;;;;;;;;;;5019989;28;20057;-62
2023/10/11 00:36:43;;;;;;;6.63;3.33;;;;;;;;;;5032063;28;20135;-62
2023/10/11 00:39:16;;;;;;;10.23;4.57;;;;;;;;;;5029313;28;20080;-62
2023/10/11 00:41:43;;;;;;;9.15;3.63;;;;;;;;;;5018799;28;20088;-61
2023/10/11 00:44:09;;;;;;;12.55;4.03;;;;;;;;;;5036746;28;20057;-60
2023/10/11 00:46:50;;;;;;;9.63;3.03;;;;;;;;;;5021300;28;20084;-60
2023/10/11 00:49:21;;;;;;;13.55;3.45;;;;;;;;;;5008628;28;20076;-60
2023/10/11 00:51:47;;;;;;;9.18;3.33;;;;;;;;;;5030953;28;20064;-60
2023/10/11 00:54:15;;;;;;;9.07;3.38;;;;;;;;;;5026949;28;20053;-60
2023/10/11 00:56:44;;;;;;;8.15;2.63;;;;;;;;;;5013730;28;20053;-61
2023/10/11 00:59:14;;;;;;;7.93;2.97;;;;;;;;;;5010781;28;20064;-62
2023/10/11 01:01:43;;;;;;;7.22;3.03;;;;;;;;;;5017880;28;20053;-61
2023/10/11 01:04:10;;;;;;;12.32;3.42;;;;;;;;;;5016650;28;20045;-61
2023/10/11 01:06:39;;;;;;;9.50;3.38;;;;;;;;;;5012842;28;20060;-61
2023/10/11 01:09:15;;;;;;;8.45;3.40;;;;;;;;;;5012215;28;20479;-62
2023/10/11 01:11:42;;;;;;;10.98;3.15;;;;;;;;;;5020673;28;20064;-61
2023/10/11 01:14:11;;;;;;;8.88;3.08;;;;;;;;;;5038915;28;20143;-61
2023/10/11 01:16:38;;;;;;;12.00;3.25;;;;;;;;;;5034451;28;20136;-61
2023/10/11 01:19:11;;;;;;;9.63;3.60;;;;;;;;;;5016717;28;20284;-60
2023/10/11 01:21:39;;;;;;;11.57;3.05;;;;;;;;;;5017252;28;20045;-60
2023/10/11 01:24:08;;;;;;;8.23;2.88;;;;;;;;;;5000786;28;20081;-61
2023/10/11 01:26:35;;;;;;;15.18;4.38;;;;;;;;;;5019556;28;20107;-61
2023/10/11 01:29:01;;;;;;;8.20;3.42;;;;;;;;;;5019358;28;20076;-62
2023/10/11 01:31:32;;;;;;;14.43;3.63;;;;;;;;;;5032500;28;20083;-61
2023/10/11 01:34:00;;;;;;;12.65;3.47;;;;;;;;;;5025530;28;20061;-61
2023/10/11 01:36:26;;;;;;;13.55;3.70;;;;;;;;;;4995489;28;20197;-61
2023/10/11 01:39:00;;;;;;;8.70;3.80;;;;;;;;;;5017464;28;20293;-61
2023/10/11 01:41:27;;;;;;;9.30;3.63;;;;;;;;;;4995149;28;21191;-60
2023/10/11 01:43:54;;;;;;;8.57;2.80;;;;;;;;;;4996233;28;20054;-61
2023/10/11 01:46:24;;;;;;;10.40;3.92;;;;;;;;;;4993658;28;20064;-61
2023/10/11 01:48:51;;;;;;;11.32;3.35;;;;;;;;;;4998849;28;20050;-62
2023/10/11 01:51:23;;;;;;;13.02;3.85;;;;;;;;;;5017560;28;20053;-61
2023/10/11 01:53:52;;;;;;;9.75;4.10;;;;;;;;;;5024982;28;20064;-61
2023/10/11 01:56:23;;;;;;;9.27;3.60;;;;;;;;;;5013718;28;20149;-61
2023/10/11 01:58:50;;;;;;;11.85;3.72;;;;;;;;;;5017652;28;20057;-61
2023/10/11 02:01:22;;;;;;;12.50;4.40;;;;;;;;;;5010436;28;20065;-60
2023/10/11 02:03:53;;;;;;;9.85;3.83;;;;;;;;;;4994373;28;20114;-60
2023/10/11 02:06:20;;;;;;;13.68;3.90;;;;;;;;;;5010185;28;20065;-61
2023/10/11 02:08:47;;;;;;;11.57;4.45;;;;;;;;;;5009627;28;20068;-60
2023/10/11 02:11:14;;;;;;;9.60;3.50;;;;;;;;;;5000349;28;20065;-61
2023/10/11 02:13:44;;;;;;;11.18;3.85;;;;;;;;;;5011973;28;20062;-61
2023/10/11 02:16:13;;;;;;;10.57;3.75;;;;;;;;;;5000038;28;20054;-61
2023/10/11 02:18:40;;;;;;;10.50;3.97;;;;;;;;;;5001749;28;20057;-61
2023/10/11 02:21:06;;;;;;;10.85;4.47;;;;;;;;;;5021422;28;20115;-60
2023/10/11 02:23:37;;;;;;;13.95;3.70;;;;;;;;;;5019379;28;20054;-61
2023/10/11 02:26:04;;;;;;;9.82;4.50;;;;;;;;;;5016481;28;20045;-61
2023/10/11 02:28:31;;;;;;;17.52;4.25;;;;;;;;;;5013242;28;20067;-60
2023/10/11 02:30:59;;;;;;;13.23;4.28;;;;;;;;;;5003969;28;20045;-61
2023/10/11 02:33:30;;;;;;;11.88;3.78;;;;;;;;;;5003240;28;20130;-61
2023/10/11 02:35:57;;;;;;;11.25;4.15;;;;;;;;;;5015682;28;20079;-60
2023/10/11 02:38:25;;;;;;;11.95;4.43;;;;;;;;;;5012752;28;20077;-61
2023/10/11 02:40:56;;;;;;;12.50;4.35;;;;;;;;;;5025627;28;20041;-61
2023/10/11 02:43:26;;;;;;;12.73;4.43;;;;;;;;;;5002950;28;20095;-62
2023/10/11 02:45:53;;;;;;;12.13;4.45;;;;;;;;;;4998822;28;20081;-60
2023/10/11 02:48:21;;;;;;;14.93;3.78;;;;;;;;;;5018953;28;20080;-61
2023/10/11 02:50:54;;;;;;;13.60;4.35;;;;;;;;;;4998845;28;20046;-61
2023/10/11 02:53:23;;;;;;;12.05;4.63;;;;;;;;;;4999435;28;20081;-61
2023/10/11 02:55:57;;;;;;;12.23;4.85;;;;;;;;;;4997280;28;20073;-61
2023/10/11 02:58:25;;;;;;;20.52;6.63;;;;;;;;;;5001247;28;20050;-61
2023/10/11 03:00:56;;;;;;;12.57;4.53;;;;;;;;;;5000053;28;20168;-61
2023/10/11 03:03:26;;;;;;;13.32;5.20;;;;;;;;;;5009879;28;20141;-62
2023/10/11 03:05:55;;;;;;;14.68;4.30;;;;;;;;;;5016357;28;20062;-61
2023/10/11 03:08:22;;;;;;;13.68;3.97;;;;;;;;;;5016321;28;20054;-62
2023/10/11 03:10:54;;;;;;;12.38;4.53;;;;;;;;;;5014711;28;20057;-60
2023/10/11 03:13:25;;;;;;;9.85;4.30;;;;;;;;;;5030754;28;20117;-61
2023/10/11 03:15:55;;;;;;;12.77;4.43;;;;;;;;;;5014690;28;20065;-60
2023/10/11 03:18:31;;;;;;;14.57;5.53;;;;;;;;;;5016847;28;20061;-61
2023/10/11 03:21:07;;;;;;;15.55;5.82;;;;;;;;;;5024497;28;20049;-61
2023/10/11 03:23:36;;;;;;;8.45;3.65;;;;;;;;;;5024556;28;20056;-60
2023/10/11 03:26:17;;;;;;;10.25;4.07;;;;;;;;;;5030988;28;20061;-61
2023/10/11 03:28:56;;;;;;;8.70;3.85;;;;;;;;;;4999246;28;20049;-60
2023/10/11 03:31:23;;;;;;;14.40;4.53;;;;;;;;;;5018698;28;20053;-61
2023/10/11 03:33:51;;;;;;;12.88;4.50;;;;;;;;;;4997983;28;20134;-60
2023/10/11 03:36:21;;;;;;;14.23;4.28;;;;;;;;;;5017428;28;20053;-62
2023/10/11 03:38:52;;;;;;;11.00;4.25;;;;;;;;;;5017208;28;20136;-61
2023/10/11 03:41:27;;;;;;;11.88;4.65;;;;;;;;;;5002343;28;20055;-61
2023/10/11 03:44:00;;;;;;;9.10;3.97;;;;;;;;;;5017517;28;20068;-61
2023/10/11 03:46:32;;;;;;;12.20;4.55;;;;;;;;;;4994866;28;20097;-61
2023/10/11 03:49:14;;;;;;;12.55;4.85;;;;;;;;;;4998832;28;20129;-61
2023/10/11 03:51:43;;;;;;;14.75;5.10;;;;;;;;;;5000632;28;20127;-61
2023/10/11 03:54:13;;;;;;;;;;;;;;;;;;5024031;28;20084;-61
2023/10/11 03:56:45;;;;;;;7.30;3.30;;;;;;;;;;5013267;28;19991;-61
2023/10/11 03:59:12;;;;;;;10.40;4.75;;;;;;;;;;5019704;28;20068;-60
2023/10/11 04:01:39;;;;;;;16.23;5.03;;;;;;;;;;5018463;28;20054;-60
2023/10/11 04:04:07;;;;;;;13.20;4.93;;;;;;;;;;5014576;28;20053;-62
2023/10/11 04:06:34;;;;;;;9.98;4.45;;;;;;;;;;5012516;28;20125;-62
2023/10/11 04:09:02;;;;;;;18.73;4.43;;;;;;;;;;5016086;28;20073;-62
2023/10/11 04:11:37;;;;;;;12.88;5.00;;;;;;;;;;5000403;28;20057;-62
2023/10/11 04:14:12;;;;;;;16.73;4.68;;;;;;;;;;4995111;28;20085;-62
2023/10/11 04:16:38;;;;;;;10.48;4.65;;;;;;;;;;5000299;28;20069;-60
2023/10/11 04:19:08;;;;;;;9.50;4.30;;;;;;;;;;5019213;28;20088;-60
2023/10/11 04:21:54;;;;;;;10.70;4.40;;;;;;;;;;5017548;28;20069;-60
2023/10/11 04:24:20;;;;;;;14.55;4.75;;;;;;;;;;4988552;28;20057;-60
2023/10/11 04:26:54;;;;;;;13.63;5.15;;;;;;;;;;5016891;28;20049;-60
2023/10/11 04:29:23;;;;;;;13.02;5.20;;;;;;;;;;5016324;28;20049;-62
2023/10/11 04:32:09;;;;;;;16.38;5.68;;;;;;;;;;5019548;28;20045;-60
2023/10/11 04:34:47;;;;;;;11.63;4.43;;;;;;;;;;5006326;28;20135;-61
2023/10/11 04:37:19;;;;;;;11.00;5.22;;;;;;;;;;5018536;28;20053;-61
2023/10/11 04:39:51;;;;;;;12.85;5.25;;;;;;;;;;5015923;28;20151;-60
2023/10/11 04:42:19;;;;;;;11.77;4.32;;;;;;;;;;4995732;28;20109;-61
2023/10/11 04:44:54;;;;;;;15.90;4.90;;;;;;;;;;5004224;28;21558;-61
2023/10/11 04:47:23;;;;;;;16.45;5.70;;;;;;;;;;5012113;28;20053;-61
2023/10/11 04:49:52;;;;;;;23.65;9.95;;;;;;;;;;5018008;28;20065;-60
2023/10/11 04:52:25;;;;;;;18.77;7.70;;;;;;;;;;5015397;28;20057;-61
2023/10/11 04:54:54;;;;;;;12.70;4.97;;;;;;;;;;4981397;28;20108;-61
2023/10/11 04:57:32;;;;;;;13.70;4.70;;;;;;;;;;4998682;28;20100;-61
2023/10/11 05:00:00;;;;;;;10.77;4.57;;;;;;;;;;4995352;28;20137;-61
2023/10/11 05:02:32;;;;;;;15.13;6.17;;;;;;;;;;5009817;28;20073;-61
2023/10/11 05:05:00;;;;;;;17.98;7.60;;;;;;;;;;5023137;28;20064;-60
2023/10/11 05:07:28;;;;;;;14.60;5.75;;;;;;;;;;5022583;28;20057;-60
2023/10/11 05:10:29;;;;;;;13.48;4.80;;;;;;;;;;5029437;28;20052;-61
2023/10/11 05:12:46;;;;;;;13.57;5.07;;;;;;;;;;5012893;28;20136;-61
2023/10/11 05:15:15;;;;;;;15.15;6.97;;;;;;;;;;5004871;28;20111;-61
2023/10/11 05:17:49;;;;;;;16.73;6.57;;;;;;;;;;5000263;28;20049;-62
2023/10/11 05:23:06;;;;;;;12.52;4.25;;;;;;;;;;5006528;28;20056;-63
2023/10/11 05:25:45;;;;;;;13.25;4.40;;;;;;;;;;5025853;28;20114;-60
2023/10/11 05:28:44;;;;;;;11.45;4.88;;;;;;;;;;5011119;28;20137;-62
2023/10/11 05:31:22;;;;;;;14.45;5.32;;;;;;;;;;5021939;28;20060;-61
2023/10/11 05:53:02;;;;;;;12.27;4.00;;;;;;;;;;5015887;28;20049;-61
2023/10/11 05:55:30;;;;;;;18.23;5.63;;;;;;;;;;5011817;28;20053;-61
2023/10/11 05:57:57;;;;;;;15.23;4.90;;;;;;;;;;5021263;28;20246;-61
2023/10/11 06:00:31;;;;;;;12.90;4.82;;;;;;;;;;5015801;28;20082;-61
2023/10/11 06:02:59;;;;;;;14.07;5.25;;;;;;;;;;5016749;28;20069;-61
2023/10/11 06:05:26;;;;;;;13.00;5.10;;;;;;;;;;4999351;28;20305;-61
2023/10/11 06:08:03;;;;;;;13.75;5.50;;;;;;;;;;5017682;28;20125;-61
2023/10/11 06:10:41;;;;;;;15.88;5.40;;;;;;;;;;5019532;28;20053;-61
2023/10/11 06:13:13;;;;;;;11.52;4.75;;;;;;;;;;5009365;28;20072;-61
2023/10/11 06:15:58;;;;;;;27.10;8.25;;;;;;;;;;5031045;28;20104;-60
2023/10/11 06:18:55;;;;;;;13.48;5.63;;;;;;;;;;5008017;28;20084;-61
2023/10/11 06:21:30;;;;;;;13.32;5.65;;;;;;;;;;5016903;28;20125;-61
2023/10/11 06:23:57;;;;;;;12.90;4.90;;;;;;;;;;4998466;28;20235;-61
2023/10/11 06:29:22;;;;;;;13.93;5.18;;;;;;;;;;5037417;28;20124;-60
2023/10/11 06:31:53;;;;;;;13.13;4.63;;;;;;;;;;5035053;28;20207;-60
2023/10/11 06:34:25;;;;;;;15.55;5.40;;;;;;;;;;5013096;28;20053;-61
2023/10/11 06:36:53;;;;;;;12.02;4.93;;;;;;;;;;5006124;28;20184;-61
2023/10/11 06:42:21;;;;;;;18.30;4.57;;;;;;;;;;5015961;28;20128;-61
2023/10/11 06:44:49;;;;;;;12.65;5.25;;;;;;;;;;4996458;28;20055;-60
2023/10/11 06:47:18;;;;;;;11.68;4.45;;;;;;;;;;5017548;28;20060;-61
2023/10/11 06:49:47;;;;;;;17.98;5.05;;;;;;;;;;5017179;28;20054;-61
2023/10/11 06:52:17;;;;;;;13.15;5.55;;;;;;;;;;5020223;28;20057;-61
2023/10/11 06:54:47;;;;;;;13.38;5.20;;;;;;;;;;4970880;28;20053;-60
2023/10/11 06:57:19;;;;;;;13.80;5.38;;;;;;;;;;5014825;28;20060;-61
2023/10/11 06:59:49;;;;;;;13.32;5.78;;;;;;;;;;5015629;28;20073;-62
2023/10/11 07:02:31;;;;;;;20.42;6.50;;;;;;;;;;5013405;28;20057;-61
2023/10/11 07:04:58;;;;;;;17.33;5.57;;;;;;;;;;4976803;28;20065;-61
2023/10/11 07:07:32;;;;;;;13.32;6.03;;;;;;;;;;4998843;28;20053;-59
2023/10/11 07:10:00;;;;;;;13.48;5.45;;;;;;;;;;5002712;28;20111;-60
2023/10/11 07:12:39;;;;;;;13.63;6.28;;;;;;;;;;5004764;28;20100;-60
2023/10/11 07:15:09;;;;;;;17.90;6.65;;;;;;;;;;4993523;28;20056;-60
2023/10/11 07:17:36;;;;;;;14.20;5.97;;;;;;;;;;5019388;28;20053;-59
2023/10/11 07:20:44;;;;;;;18.33;6.05;;;;;;;;;;5020241;28;20061;-61
2023/10/11 07:22:50;;;;;;;;;;;;;;;;;;5018174;28;20052;-61
2023/10/11 07:25:36;;;;;;;15.30;5.70;;;;;;;;;;4994539;28;20008;-60
2023/10/11 07:28:06;;;;;;;13.88;5.32;;;;;;;;;;5000110;28;20041;-60
2023/10/11 07:30:37;;;;;;;13.75;5.97;;;;;;;;;;5016588;28;20053;-60
2023/10/11 07:33:05;;;;;;;15.35;5.93;;;;;;;;;;5019258;28;20073;-61
2023/10/11 07:35:33;;;;;;;;;;;;;;;;;;5013222;28;20077;-60
2023/10/11 07:38:01;;;;;;;13.00;5.60;;;;;;;;;;5001916;28;20008;-60
2023/10/11 07:40:33;;;;;;;21.10;6.37;;;;;;;;;;4983863;28;20058;-59
2023/10/11 07:43:00;;;;;;;13.75;5.68;;;;;;;;;;4986368;28;20057;-61
2023/10/11 07:45:29;;;;;;;17.85;6.03;;;;;;;;;;4996935;28;20167;-62
2023/10/11 07:47:55;;;;;;;20.02;6.80;;;;;;;;;;5018732;28;20053;-62
2023/10/11 07:50:23;;;;;;;19.40;6.60;;;;;;;;;;5013006;28;20115;-61
2023/10/11 07:52:50;;;;;;;22.95;6.63;;;;;;;;;;5018833;28;20077;-62
2023/10/11 07:55:17;;;;;;;19.25;6.53;;;;;;;;;;4968092;28;20064;-62
2023/10/11 07:57:46;;;;;;;13.52;5.57;;;;;;;;;;4982870;28;20057;-61
2023/10/11 08:00:18;;;;;;;16.10;6.53;;;;;;;;;;5017878;28;20143;-60
2023/10/11 08:02:56;;;;;;;20.63;7.22;;;;;;;;;;5001466;28;20062;-60
2023/10/11 08:05:25;;;;;;;18.00;6.30;;;;;;;;;;4977133;28;20065;-60
2023/10/11 08:07:52;;;;;;;20.85;6.88;;;;;;;;;;4997746;28;20050;-60
2023/10/11 08:10:30;;;;;;;17.08;6.47;;;;;;;;;;4981017;28;20058;-60
2023/10/11 08:13:00;;;;;;;20.95;7.15;;;;;;;;;;4983915;28;20113;-60
2023/10/11 08:15:27;;;;;;;22.17;7.72;;;;;;;;;;4981377;28;20137;-60
2023/10/11 08:17:55;;;;;;;21.90;6.90;;;;;;;;;;4997470;28;20129;-59
2023/10/11 08:20:28;;;;;;;16.40;7.18;;;;;;;;;;4989808;28;20050;-61
2023/10/11 08:22:57;;;;;;;14.77;6.45;;;;;;;;;;4999069;28;20066;-60
2023/10/11 08:25:27;;;;;;;17.70;7.72;;;;;;;;;;4983522;28;20060;-60
2023/10/11 08:28:10;;;;;;;23.75;9.15;;;;;;;;;;4987266;28;20086;-62
2023/10/11 08:30:38;;;;;;;19.80;8.32;;;;;;;;;;5015195;28;20052;-60
2023/10/11 08:33:07;;;;;;;22.60;8.60;;;;;;;;;;5014603;28;20491;-61
2023/10/11 08:35:33;;;;;;;24.95;8.02;;;;;;;;;;4996314;28;20053;-60
2023/10/11 08:38:04;;;;;;;16.17;7.25;;;;;;;;;;5014399;28;20064;-60
2023/10/11 08:40:35;;;;;;;22.75;7.38;;;;;;;;;;5009546;28;20065;-60
2023/10/11 08:43:02;;;;;;;17.13;7.32;;;;;;;;;;5008899;28;20061;-60
2023/10/11 08:45:35;;;;;;;21.83;7.83;;;;;;;;;;4982751;28;20058;-60
2023/10/11 08:48:03;;;;;;;18.13;7.93;;;;;;;;;;4986187;28;20300;-60
2023/10/11 08:50:34;;;;;;;21.98;8.18;;;;;;;;;;4993030;28;20136;-60
2023/10/11 08:53:02;;;;;;;25.92;8.73;;;;;;;;;;5013169;28;20050;-61
2023/10/11 08:55:29;;;;;;;21.67;7.72;;;;;;;;;;4984906;28;20049;-62
2023/10/11 08:57:58;;;;;;;20.52;7.72;;;;;;;;;;5017146;28;20080;-60
2023/10/11 09:00:33;;;;;;;24.98;10.07;;;;;;;;;;5006008;28;20061;-61
2023/10/11 09:03:18;;;;;;;18.60;8.38;;;;;;;;;;4982803;28;20061;-60
2023/10/11 09:05:47;;;;;;;24.02;9.63;;;;;;;;;;5001999;28;20063;-60
2023/10/11 09:08:21;;;;;;;24.40;8.30;;;;;;;;;;5015971;28;20067;-61
2023/10/11 09:10:51;;;;;;;19.80;9.05;;;;;;;;;;5015571;28;20138;-60
2023/10/11 09:13:27;;;;;;;23.70;9.07;;;;;;;;;;5006885;28;20136;-61
2023/10/11 09:15:55;;;;;;;19.58;9.50;;;;;;;;;;5003922;28;20053;-60
2023/10/11 09:18:25;;;;;;;31.17;9.57;;;;;;;;;;5012313;28;20072;-60
2023/10/11 09:21:08;;;;;;;26.13;10.15;;;;;;;;;;5015806;28;20041;-60
2023/10/11 09:23:36;;;;;;;29.08;9.68;;;;;;;;;;5014914;28;20061;-59
2023/10/11 09:26:03;;;;;;;21.77;9.45;;;;;;;;;;5010947;28;20149;-60
2023/10/11 09:28:33;;;;;;;28.30;10.57;;;;;;;;;;5015771;28;20060;-60
2023/10/11 09:31:10;;;;;;;28.88;10.45;;;;;;;;;;5038285;28;20111;-60
2023/10/11 09:33:40;;;;;;;32.97;10.75;;;;;;;;;;5031570;28;20056;-60
2023/10/11 09:36:09;;;;;;;35.17;10.35;;;;;;;;;;5013566;28;20112;-61
2023/10/11 09:38:40;;;;;;;29.35;11.93;;;;;;;;;;4995594;28;20053;-60
2023/10/11 09:41:08;;;;;;;29.65;11.90;;;;;;;;;;5015416;28;20215;-60
2023/10/11 09:43:41;;;;;;;28.23;10.13;;;;;;;;;;5016924;28;20072;-61
2023/10/11 09:46:11;;;;;;;26.33;10.75;;;;;;;;;;4983432;28;20308;-62
2023/10/11 09:48:39;;;;;;;33.28;12.45;;;;;;;;;;5032317;28;20335;-60
2023/10/11 09:51:15;;;;;;;30.73;11.50;;;;;;;;;;5022117;28;20037;-61
2023/10/11 09:53:49;;;;;;;27.05;10.73;;;;;;;;;;5017572;28;20140;-61
2023/10/11 09:56:29;;;;;;;30.95;11.02;;;;;;;;;;4946814;28;20057;-61
2023/10/11 09:59:06;;;;;;;33.17;11.10;;;;;;;;;;5012799;28;20042;-59
2023/10/11 10:01:40;;;;;;;40.17;12.57;;;;;;;;;;5017127;28;20124;-60
2023/10/11 10:04:09;;;;;;;27.63;10.45;;;;;;;;;;4997838;28;20512;-61
2023/10/11 10:06:37;;;;;;;20.25;9.43;;;;;;;;;;5009229;28;20143;-60
2023/10/11 10:09:26;;;;;;;29.83;10.77;;;;;;;;;;5038071;28;20044;-61
2023/10/11 10:12:22;;;;;;;30.33;10.55;;;;;;;;;;5028496;28;20064;-61
2023/10/11 10:15:06;;;;;;;26.88;10.93;;;;;;;;;;4980046;28;20057;-61
2023/10/11 10:17:34;;;;;;;35.95;10.77;;;;;;;;;;5001982;28;20054;-62
2023/10/11 10:20:38;;;;;;;28.98;10.35;;;;;;;;;;5010527;28;20115;-60
2023/10/11 10:23:32;;;;;;;28.80;10.38;;;;;;;;;;5015516;28;20065;-61
2023/10/11 10:26:38;;;;;;;25.90;10.55;;;;;;;;;;5002870;28;20088;-61
2023/10/11 10:29:07;;;;;;;26.23;10.18;;;;;;;;;;5020629;28;20053;-60
2023/10/11 10:31:34;;;;;;;24.30;9.27;;;;;;;;;;4995477;28;20065;-60
2023/10/11 10:34:29;;;;;;;33.72;11.43;;;;;;;;;;4995835;28;20045;-61
2023/10/11 10:36:59;;;;;;;22.70;8.85;;;;;;;;;;5018369;28;20060;-62
2023/10/11 10:42:13;;;;;;;35.00;10.18;;;;;;;;;;5020221;28;20145;-61
2023/10/11 10:44:49;;;;;;;31.58;10.98;;;;;;;;;;5000835;28;20066;-61
2023/10/11 10:47:25;;;;;;;37.92;12.23;;;;;;;;;;4995274;28;20053;-60
2023/10/11 10:49:54;;;;;;;28.30;9.98;;;;;;;;;;5039611;28;20053;-60
2023/10/11 10:52:24;;;;;;;26.05;8.90;;;;;;;;;;5038201;28;20131;-60
2023/10/11 10:55:02;;;;;;;25.58;9.88;;;;;;;;;;4982837;28;20066;-61
2023/10/11 10:57:31;;;;;;;;;;;;;;;;;;5019492;28;20057;-60
2023/10/11 11:00:05;;;;;;;27.50;9.30;;;;;;;;;;5008991;28;19929;-60
2023/10/11 11:02:34;;;;;;;24.33;8.70;;;;;;;;;;5011703;28;20057;-61
2023/10/11 11:05:01;;;;;;;24.52;10.02;;;;;;;;;;5003187;28;20057;-61
2023/10/11 11:07:27;;;;;;;22.95;9.52;;;;;;;;;;5019631;28;20124;-61
2023/10/11 11:09:57;;;;;;;35.03;10.27;;;;;;;;;;5018835;28;20262;-61
2023/10/11 11:12:28;;;;;;;25.50;9.30;;;;;;;;;;5012577;28;20053;-62
2023/10/11 11:14:58;;;;;;;29.35;9.55;;;;;;;;;;5005004;28;20057;-61
2023/10/11 11:17:26;;;;;;;28.83;9.57;;;;;;;;;;5021473;28;20140;-62
2023/10/11 11:20:13;;;;;;;24.70;9.98;;;;;;;;;;5024579;28;20041;-62
2023/10/11 11:22:45;;;;;;;33.25;10.77;;;;;;;;;;5017917;28;20053;-62
2023/10/11 11:25:26;;;;;;;31.23;9.75;;;;;;;;;;5000497;28;20053;-61
2023/10/11 11:28:06;;;;;;;23.67;9.40;;;;;;;;;;5023486;28;20061;-62
2023/10/11 11:30:33;;;;;;;28.20;8.70;;;;;;;;;;5015289;28;20119;-62
2023/10/11 11:33:08;;;;;;;17.48;7.90;;;;;;;;;;5020224;28;20062;-62
2023/10/11 11:35:44;;;;;;;26.65;9.13;;;;;;;;;;5003416;28;20061;-62
2023/10/11 11:38:20;;;;;;;26.95;8.63;;;;;;;;;;5039912;28;20146;-60
2023/10/11 11:40:47;;;;;;;22.20;7.47;;;;;;;;;;5019592;28;20983;-62
2023/10/11 11:43:17;;;;;;;27.15;8.40;;;;;;;;;;5018029;28;20070;-62
2023/10/11 11:45:46;;;;;;;27.27;7.05;;;;;;;;;;4986837;28;20073;-62
2023/10/11 11:48:13;;;;;;;20.23;7.30;;;;;;;;;;4995973;28;20069;-62
2023/10/11 11:50:39;;;;;;;22.60;6.53;;;;;;;;;;5009529;28;20049;-62
2023/10/11 11:53:06;;;;;;;23.48;7.03;;;;;;;;;;4991984;28;20053;-61
2023/10/11 11:55:34;;;;;;;20.88;6.53;;;;;;;;;;5007719;28;20184;-61
2023/10/11 11:58:10;;;;;;;15.30;5.78;;;;;;;;;;4994810;28;20147;-62
2023/10/11 12:00:39;;;;;;;15.15;5.63;;;;;;;;;;5017199;28;20057;-61
2023/10/11 12:03:05;;;;;;;;;;;;;;;;;;5001155;28;20045;-60
2023/10/11 12:05:37;;;;;;;22.60;6.25;;;;;;;;;;4971803;28;19921;-62
2023/10/11 12:08:08;;;;;;;16.00;6.03;;;;;;;;;;5017664;28;20057;-62
2023/10/11 12:10:37;;;;;;;20.17;6.38;;;;;;;;;;5008192;28;20266;-62
2023/10/11 12:13:07;;;;;;;22.70;5.80;;;;;;;;;;5017716;28;20057;-60
2023/10/11 12:15:39;;;;;;;27.38;6.38;;;;;;;;;;4978827;28;20052;-61
2023/10/11 12:18:09;;;;;;;20.35;6.68;;;;;;;;;;5019961;28;20166;-61
2023/10/11 12:20:39;;;;;;;18.92;6.35;;;;;;;;;;5011581;28;20060;-60
2023/10/11 12:23:11;;;;;;;15.50;5.40;;;;;;;;;;5020665;28;20057;-61
2023/10/11 12:25:39;;;;;;;22.38;5.63;;;;;;;;;;5005576;28;20042;-61
2023/10/11 12:28:08;;;;;;;13.65;5.38;;;;;;;;;;5018092;28;20053;-61
2023/10/11 12:30:35;;;;;;;17.70;5.20;;;;;;;;;;5011439;28;20163;-59
2023/10/11 12:33:06;;;;;;;17.10;5.57;;;;;;;;;;5017511;28;20057;-62
2023/10/11 12:35:40;;;;;;;18.35;5.80;;;;;;;;;;4988127;28;20079;-60
2023/10/11 12:38:06;;;;;;;19.23;6.57;;;;;;;;;;5016278;28;20054;-58
2023/10/11 12:40:34;;;;;;;16.65;6.22;;;;;;;;;;5015516;28;20136;-60
2023/10/11 12:43:07;;;;;;;15.73;5.82;;;;;;;;;;5018737;28;20081;-61
2023/10/11 12:45:36;;;;;;;19.85;5.57;;;;;;;;;;5006247;28;20135;-61
2023/10/11 12:48:06;;;;;;;18.80;6.03;;;;;;;;;;5017991;28;20053;-61
2023/10/11 12:50:37;;;;;;;16.63;5.55;;;;;;;;;;5009460;28;20068;-60
2023/10/11 12:53:12;;;;;;;19.42;5.78;;;;;;;;;;5018677;28;20045;-61
2023/10/11 12:55:42;;;;;;;15.05;5.65;;;;;;;;;;5002416;28;20069;-61
2023/10/11 12:58:20;;;;;;;19.30;6.72;;;;;;;;;;5016658;28;20065;-61
2023/10/11 13:00:51;;;;;;;21.20;7.13;;;;;;;;;;5000132;28;20068;-61
2023/10/11 13:03:25;;;;;;;16.33;6.57;;;;;;;;;;5016552;28;20053;-60
2023/10/11 13:05:52;;;;;;;20.15;6.30;;;;;;;;;;4972648;28;20064;-61
2023/10/11 13:08:24;;;;;;;20.33;6.80;;;;;;;;;;4979692;28;20058;-61
2023/10/11 13:10:52;;;;;;;19.73;6.50;;;;;;;;;;4987212;28;20054;-61
2023/10/11 13:13:20;;;;;;;25.70;7.55;;;;;;;;;;4992182;28;20124;-61
2023/10/11 13:15:55;;;;;;;;;;;;;;;;;;4943517;28;20053;-61
2023/10/11 13:18:26;;;;;;;24.10;7.00;;;;;;;;;;4990184;28;19925;-62
2023/10/11 13:20:53;;;;;;;19.27;7.32;;;;;;;;;;5004707;28;20065;-59
2023/10/11 13:23:28;;;;;;;20.02;6.88;;;;;;;;;;5016531;28;20053;-60
2023/10/11 13:25:56;;;;;;;21.13;6.85;;;;;;;;;;4980344;28;20081;-61
2023/10/11 13:28:26;;;;;;;23.20;7.30;;;;;;;;;;4978056;28;20049;-63
2023/10/11 13:30:54;;;;;;;17.08;7.55;;;;;;;;;;5016062;28;20108;-61
2023/10/11 13:33:21;;;;;;;15.68;6.63;;;;;;;;;;4989648;28;20087;-62
2023/10/11 13:35:49;;;;;;;20.30;8.07;;;;;;;;;;4951813;28;20057;-59
2023/10/11 13:38:20;;;;;;;;;;;;;;;;;;4978923;28;20045;-62
2023/10/11 13:40:50;;;;;;;19.98;7.18;;;;;;;;;;4983188;28;21707;-61
2023/10/11 13:43:18;;;;;;;21.10;7.60;;;;;;;;;;4998058;28;20062;-61
2023/10/11 13:45:56;;;;;;;21.55;7.43;;;;;;;;;;4976732;28;20188;-62
2023/10/11 13:48:26;;;;;;;20.88;7.53;;;;;;;;;;4997962;28;20054;-63
2023/10/11 13:50:56;;;;;;;23.83;8.43;;;;;;;;;;5007832;28;20069;-62
2023/10/11 13:53:24;;;;;;;18.05;7.78;;;;;;;;;;5000907;28;20060;-62
2023/10/11 13:55:53;;;;;;;19.80;7.85;;;;;;;;;;4983808;28;20093;-62
2023/10/11 13:58:20;;;;;;;25.50;7.00;;;;;;;;;;4988058;28;20136;-62
2023/10/11 14:01:01;;;;;;;27.85;8.02;;;;;;;;;;4997667;28;20050;-61
2023/10/11 14:03:40;;;;;;;25.08;8.23;;;;;;;;;;4988884;28;20165;-62
2023/10/11 14:09:16;;;;;;;24.25;8.38;;;;;;;;;;5068965;27;20395;-61
2023/10/11 14:11:46;;;;;;;20.80;7.82;;;;;;;;;;5055160;28;20112;-60
2023/10/11 14:14:20;;;;;;;23.05;9.07;;;;;;;;;;5052384;28;20056;-61
2023/10/11 14:16:47;;;;;;;20.52;9.10;;;;;;;;;;5046732;28;20084;-61
2023/10/11 14:19:16;;;;;;;28.52;8.93;;;;;;;;;;5048535;28;20105;-61
2023/10/11 14:21:47;;;;;;;21.83;8.32;;;;;;;;;;5051013;28;20058;-61
2023/10/11 14:24:17;;;;;;;21.52;8.48;;;;;;;;;;5055824;28;20044;-61
2023/10/11 14:26:44;;;;;;;29.63;9.23;;;;;;;;;;5042362;28;20056;-61
2023/10/11 14:29:10;;;;;;;23.52;9.02;;;;;;;;;;5033344;28;20064;-61
2023/10/11 14:31:37;;;;;;;25.48;9.52;;;;;;;;;;5047686;28;20069;-61
2023/10/11 14:34:06;;;;;;;31.17;11.38;;;;;;;;;;5051841;28;20059;-60
2023/10/11 14:36:33;;;;;;;36.35;12.30;;;;;;;;;;5044004;28;20052;-61
2023/10/11 14:39:00;;;;;;;30.00;12.27;;;;;;;;;;5053057;28;20044;-61
2023/10/11 14:41:28;;;;;;;29.85;12.90;;;;;;;;;;5053541;28;20048;-61
2023/10/11 14:43:56;;;;;;;29.75;12.45;;;;;;;;;;5032944;28;20110;-61
2023/10/11 14:46:23;;;;;;;27.90;13.30;;;;;;;;;;4986249;28;20053;-62
2023/10/11 14:48:50;;;;;;;31.33;13.48;;;;;;;;;;5033482;28;20049;-60
2023/10/11 14:51:18;;;;;;;27.85;13.10;;;;;;;;;;5041581;28;20061;-61
2023/10/11 14:53:46;;;;;;;32.00;13.43;;;;;;;;;;5046853;28;20045;-60
2023/10/11 14:56:13;;;;;;;28.40;12.83;;;;;;;;;;5002566;28;20084;-61
2023/10/11 14:58:43;;;;;;;30.65;13.05;;;;;;;;;;5029240;28;20172;-60
2023/10/11 15:01:15;;;;;;;30.05;12.40;;;;;;;;;;5026487;28;20123;-60
2023/10/11 15:03:42;;;;;;;28.83;12.63;;;;;;;;;;5049861;28;20134;-61
2023/10/11 15:06:10;;;;;;;28.88;11.75;;;;;;;;;;5018874;28;20064;-61
2023/10/11 15:08:42;;;;;;;34.40;12.40;;;;;;;;;;5025009;28;20079;-60
2023/10/11 15:11:11;;;;;;;33.33;12.40;;;;;;;;;;5030828;28;20045;-61
2023/10/11 15:13:37;;;;;;;;;;;;;;;;;;5015041;28;20245;-60
2023/10/11 15:16:06;;;;;;;23.77;10.90;;;;;;;;;;4992864;28;19925;-61
2023/10/11 15:18:34;;;;;;;;;;;;;;;;;;5003487;28;20069;-60
2023/10/11 15:21:04;;;;;;;25.00;10.93;;;;;;;;;;5000092;28;20012;-60
2023/10/11 15:23:35;;;;;;;32.10;10.95;;;;;;;;;;4997072;28;20050;-60
2023/10/11 15:26:03;;;;;;;31.75;12.50;;;;;;;;;;4992329;28;20145;-60
2023/10/11 15:28:32;;;;;;;31.23;13.07;;;;;;;;;;4972089;28;20132;-61
2023/10/11 15:31:00;;;;;;;25.35;11.63;;;;;;;;;;4990304;28;20082;-60